sensor_id;sensor_type;location;lat;lon;timestamp;temperature;humidity
48998;DHT22;34807;51.456;7.244;2023-05-15T00:00:11;15.70;92.70
48998;DHT22;34807;51.456;7.244;2023-05-15T00:02:37;15.70;92.80
48998;DHT22;34807;51.456;7.244;2023-05-15T00:05:03;15.60;92.90
48998;DHT22;34807;51.456;7.244;2023-05-15T00:07:29;15.60;93.00
48998;DHT22;34807;51.456;7.244;2023-05-15T00:09:54;15.60;93.10
48998;DHT22;34807;51.456;7.244;2023-05-15T00:12:20;15.60;93.20
48998;DHT22;34807;51.456;7.244;2023-05-15T00:14:45;15.50;93.20
48998;DHT22;34807;51.456;7.244;2023-05-15T00:17:11;15.50;93.20
48998;DHT22;34807;51.456;7.244;2023-05-15T00:19:37;15.50;93.30
48998;DHT22;34807;51.456;7.244;2023-05-15T00:22:02;15.50;93.10
48998;DHT22;34807;51.456;7.244;2023-05-15T00:24:28;15.40;93.30
48998;DHT22;34807;51.456;7.244;2023-05-15T00:26:53;15.40;93.40
48998;DHT22;34807;51.456;7.244;2023-05-15T00:29:19;15.40;93.40
48998;DHT22;34807;51.456;7.244;2023-05-15T00:31:45;15.40;93.40
48998;DHT22;34807;51.456;7.244;2023-05-15T00:34:10;15.40;93.50
48998;DHT22;34807;51.456;7.244;2023-05-15T00:36:36;15.30;93.40
48998;DHT22;34807;51.456;7.244;2023-05-15T00:39:01;15.30;93.30
48998;DHT22;34807;51.456;7.244;2023-05-15T00:41:27;15.30;93.40
48998;DHT22;34807;51.456;7.244;2023-05-15T00:43:53;15.30;93.50
48998;DHT22;34807;51.456;7.244;2023-05-15T00:46:19;15.30;93.60
48998;DHT22;34807;51.456;7.244;2023-05-15T00:48:46;15.30;93.60
48998;DHT22;34807;51.456;7.244;2023-05-15T00:51:12;15.20;93.60
48998;DHT22;34807;51.456;7.244;2023-05-15T00:53:38;15.20;93.60
48998;DHT22;34807;51.456;7.244;2023-05-15T00:56:04;15.20;93.60
48998;DHT22;34807;51.456;7.244;2023-05-15T00:58:30;15.20;93.90
48998;DHT22;34807;51.456;7.244;2023-05-15T01:00:56;15.20;93.60
48998;DHT22;34807;51.456;7.244;2023-05-15T01:03:22;15.10;93.70
48998;DHT22;34807;51.456;7.244;2023-05-15T01:05:47;15.10;93.80
48998;DHT22;34807;51.456;7.244;2023-05-15T01:10:45;15.10;93.60
48998;DHT22;34807;51.456;7.244;2023-05-15T01:13:12;15.10;93.80
48998;DHT22;34807;51.456;7.244;2023-05-15T01:15:38;15.10;93.90
48998;DHT22;34807;51.456;7.244;2023-05-15T01:18:04;15.10;93.90
48998;DHT22;34807;51.456;7.244;2023-05-15T01:20:30;15.00;93.80
48998;DHT22;34807;51.456;7.244;2023-05-15T01:25:31;15.00;93.90
48998;DHT22;34807;51.456;7.244;2023-05-15T01:28:02;15.00;93.90
48998;DHT22;34807;51.456;7.244;2023-05-15T01:30:31;15.00;94.00
48998;DHT22;34807;51.456;7.244;2023-05-15T01:37:53;14.90;94.10
48998;DHT22;34807;51.456;7.244;2023-05-15T01:40:20;14.90;94.10
48998;DHT22;34807;51.456;7.244;2023-05-15T01:42:50;14.90;94.10
48998;DHT22;34807;51.456;7.244;2023-05-15T01:45:18;14.80;94.10
48998;DHT22;34807;51.456;7.244;2023-05-15T01:47:45;14.90;94.20
48998;DHT22;34807;51.456;7.244;2023-05-15T01:50:12;14.80;94.20
48998;DHT22;34807;51.456;7.244;2023-05-15T01:52:39;14.80;94.30
48998;DHT22;34807;51.456;7.244;2023-05-15T01:55:07;14.80;94.40
48998;DHT22;34807;51.456;7.244;2023-05-15T01:57:33;14.80;94.40
48998;DHT22;34807;51.456;7.244;2023-05-15T02:00:00;14.80;94.40
48998;DHT22;34807;51.456;7.244;2023-05-15T02:02:26;14.70;94.30
48998;DHT22;34807;51.456;7.244;2023-05-15T02:04:52;14.70;94.40
48998;DHT22;34807;51.456;7.244;2023-05-15T02:07:18;14.70;94.40
48998;DHT22;34807;51.456;7.244;2023-05-15T02:09:44;14.70;94.50
48998;DHT22;34807;51.456;7.244;2023-05-15T02:12:09;14.70;94.60
48998;DHT22;34807;51.456;7.244;2023-05-15T02:14:35;14.60;94.50
48998;DHT22;34807;51.456;7.244;2023-05-15T02:17:01;14.70;94.60
48998;DHT22;34807;51.456;7.244;2023-05-15T02:19:27;14.60;94.60
48998;DHT22;34807;51.456;7.244;2023-05-15T02:21:53;14.60;94.60
48998;DHT22;34807;51.456;7.244;2023-05-15T02:24:18;14.60;94.60
48998;DHT22;34807;51.456;7.244;2023-05-15T02:26:50;14.60;94.70
48998;DHT22;34807;51.456;7.244;2023-05-15T02:29:20;14.60;94.80
48998;DHT22;34807;51.456;7.244;2023-05-15T02:31:55;14.50;94.80
48998;DHT22;34807;51.456;7.244;2023-05-15T02:34:30;14.50;94.80
48998;DHT22;34807;51.456;7.244;2023-05-15T02:36:59;14.50;94.80
48998;DHT22;34807;51.456;7.244;2023-05-15T02:39:25;14.50;94.90
48998;DHT22;34807;51.456;7.244;2023-05-15T02:41:51;14.50;94.90
48998;DHT22;34807;51.456;7.244;2023-05-15T02:44:18;14.40;94.90
48998;DHT22;34807;51.456;7.244;2023-05-15T02:46:44;14.40;94.70
48998;DHT22;34807;51.456;7.244;2023-05-15T02:49:11;14.40;94.90
48998;DHT22;34807;51.456;7.244;2023-05-15T02:51:37;14.40;94.90
48998;DHT22;34807;51.456;7.244;2023-05-15T02:54:03;14.40;95.00
48998;DHT22;34807;51.456;7.244;2023-05-15T02:56:29;14.40;94.90
48998;DHT22;34807;51.456;7.244;2023-05-15T02:58:54;14.40;94.90
48998;DHT22;34807;51.456;7.244;2023-05-15T03:01:20;14.30;94.80
48998;DHT22;34807;51.456;7.244;2023-05-15T03:03:46;14.40;94.80
48998;DHT22;34807;51.456;7.244;2023-05-15T03:06:11;14.30;94.70
48998;DHT22;34807;51.456;7.244;2023-05-15T03:08:37;14.30;94.70
48998;DHT22;34807;51.456;7.244;2023-05-15T03:11:02;14.40;94.80
48998;DHT22;34807;51.456;7.244;2023-05-15T03:13:28;14.30;94.80
48998;DHT22;34807;51.456;7.244;2023-05-15T03:15:53;14.30;94.80
48998;DHT22;34807;51.456;7.244;2023-05-15T03:18:19;14.30;94.80
48998;DHT22;34807;51.456;7.244;2023-05-15T03:20:46;14.30;94.80
48998;DHT22;34807;51.456;7.244;2023-05-15T03:23:11;14.30;94.70
48998;DHT22;34807;51.456;7.244;2023-05-15T03:25:37;14.30;94.70
48998;DHT22;34807;51.456;7.244;2023-05-15T03:28:02;14.30;94.80
48998;DHT22;34807;51.456;7.244;2023-05-15T03:30:28;14.30;94.70
48998;DHT22;34807;51.456;7.244;2023-05-15T03:32:53;14.30;94.60
48998;DHT22;34807;51.456;7.244;2023-05-15T03:35:19;14.40;94.80
48998;DHT22;34807;51.456;7.244;2023-05-15T03:37:44;14.30;94.80
48998;DHT22;34807;51.456;7.244;2023-05-15T03:40:10;14.30;94.70
48998;DHT22;34807;51.456;7.244;2023-05-15T03:42:35;14.30;94.70
48998;DHT22;34807;51.456;7.244;2023-05-15T03:45:01;14.30;94.70
48998;DHT22;34807;51.456;7.244;2023-05-15T03:47:27;14.40;94.70
48998;DHT22;34807;51.456;7.244;2023-05-15T03:49:52;14.30;94.80
48998;DHT22;34807;51.456;7.244;2023-05-15T03:52:18;14.40;94.60
48998;DHT22;34807;51.456;7.244;2023-05-15T03:54:43;14.30;94.70
48998;DHT22;34807;51.456;7.244;2023-05-15T03:57:09;14.40;94.60
48998;DHT22;34807;51.456;7.244;2023-05-15T03:59:34;14.40;94.60
48998;DHT22;34807;51.456;7.244;2023-05-15T04:02:00;14.30;94.70
48998;DHT22;34807;51.456;7.244;2023-05-15T04:04:25;14.30;94.70
48998;DHT22;34807;51.456;7.244;2023-05-15T04:06:51;14.30;94.60
48998;DHT22;34807;51.456;7.244;2023-05-15T04:09:16;14.40;94.60
48998;DHT22;34807;51.456;7.244;2023-05-15T04:11:42;14.40;94.80
48998;DHT22;34807;51.456;7.244;2023-05-15T04:14:08;14.40;94.70
48998;DHT22;34807;51.456;7.244;2023-05-15T04:16:33;14.40;94.70
48998;DHT22;34807;51.456;7.244;2023-05-15T04:18:59;14.40;94.70
48998;DHT22;34807;51.456;7.244;2023-05-15T04:21:24;14.40;94.70
48998;DHT22;34807;51.456;7.244;2023-05-15T04:23:50;14.40;94.80
48998;DHT22;34807;51.456;7.244;2023-05-15T04:26:15;14.40;94.70
48998;DHT22;34807;51.456;7.244;2023-05-15T04:28:41;14.40;94.80
48998;DHT22;34807;51.456;7.244;2023-05-15T04:31:07;14.40;95.10
48998;DHT22;34807;51.456;7.244;2023-05-15T04:33:32;14.40;94.80
48998;DHT22;34807;51.456;7.244;2023-05-15T04:35:58;14.40;94.70
48998;DHT22;34807;51.456;7.244;2023-05-15T04:38:23;14.40;94.70
48998;DHT22;34807;51.456;7.244;2023-05-15T04:40:49;14.40;94.70
48998;DHT22;34807;51.456;7.244;2023-05-15T04:43:15;14.40;94.80
48998;DHT22;34807;51.456;7.244;2023-05-15T04:45:40;14.40;94.80
48998;DHT22;34807;51.456;7.244;2023-05-15T04:48:06;14.40;94.80
48998;DHT22;34807;51.456;7.244;2023-05-15T04:50:31;14.40;94.80
48998;DHT22;34807;51.456;7.244;2023-05-15T04:52:57;14.40;94.80
48998;DHT22;34807;51.456;7.244;2023-05-15T04:55:22;14.40;94.90
48998;DHT22;34807;51.456;7.244;2023-05-15T04:57:48;14.40;94.80
48998;DHT22;34807;51.456;7.244;2023-05-15T05:00:14;14.40;94.80
48998;DHT22;34807;51.456;7.244;2023-05-15T05:02:40;14.40;94.80
48998;DHT22;34807;51.456;7.244;2023-05-15T05:05:07;14.40;94.90
48998;DHT22;34807;51.456;7.244;2023-05-15T05:07:33;14.40;94.80
48998;DHT22;34807;51.456;7.244;2023-05-15T05:09:58;14.40;94.70
48998;DHT22;34807;51.456;7.244;2023-05-15T05:12:24;14.40;94.70
48998;DHT22;34807;51.456;7.244;2023-05-15T05:14:49;14.40;95.10
48998;DHT22;34807;51.456;7.244;2023-05-15T05:17:15;14.40;94.80
48998;DHT22;34807;51.456;7.244;2023-05-15T05:19:41;14.40;94.80
48998;DHT22;34807;51.456;7.244;2023-05-15T05:22:07;14.40;94.70
48998;DHT22;34807;51.456;7.244;2023-05-15T05:24:32;14.40;94.70
48998;DHT22;34807;51.456;7.244;2023-05-15T05:27:00;14.40;94.80
48998;DHT22;34807;51.456;7.244;2023-05-15T05:29:25;14.40;94.80
48998;DHT22;34807;51.456;7.244;2023-05-15T05:31:52;14.40;94.80
48998;DHT22;34807;51.456;7.244;2023-05-15T05:34:18;14.40;94.90
48998;DHT22;34807;51.456;7.244;2023-05-15T05:36:44;14.40;94.90
48998;DHT22;34807;51.456;7.244;2023-05-15T05:39:09;14.40;94.80
48998;DHT22;34807;51.456;7.244;2023-05-15T05:41:35;14.50;94.90
48998;DHT22;34807;51.456;7.244;2023-05-15T05:44:00;14.50;94.90
48998;DHT22;34807;51.456;7.244;2023-05-15T05:46:26;14.50;94.80
48998;DHT22;34807;51.456;7.244;2023-05-15T05:48:52;14.50;94.80
48998;DHT22;34807;51.456;7.244;2023-05-15T05:51:17;14.50;94.80
48998;DHT22;34807;51.456;7.244;2023-05-15T05:53:43;14.50;94.70
48998;DHT22;34807;51.456;7.244;2023-05-15T05:56:08;14.50;94.90
48998;DHT22;34807;51.456;7.244;2023-05-15T05:58:34;14.50;94.80
48998;DHT22;34807;51.456;7.244;2023-05-15T06:01:00;14.50;95.00
48998;DHT22;34807;51.456;7.244;2023-05-15T06:03:26;14.50;94.90
48998;DHT22;34807;51.456;7.244;2023-05-15T06:05:51;14.50;94.80
48998;DHT22;34807;51.456;7.244;2023-05-15T06:08:18;14.50;94.90
48998;DHT22;34807;51.456;7.244;2023-05-15T06:10:43;14.60;94.90
48998;DHT22;34807;51.456;7.244;2023-05-15T06:13:09;14.60;94.80
48998;DHT22;34807;51.456;7.244;2023-05-15T06:15:36;14.60;94.90
48998;DHT22;34807;51.456;7.244;2023-05-15T06:18:01;14.60;94.90
48998;DHT22;34807;51.456;7.244;2023-05-15T06:20:27;14.60;94.80
48998;DHT22;34807;51.456;7.244;2023-05-15T06:22:52;14.60;94.80
48998;DHT22;34807;51.456;7.244;2023-05-15T06:25:18;14.60;94.80
48998;DHT22;34807;51.456;7.244;2023-05-15T06:27:43;14.60;94.80
48998;DHT22;34807;51.456;7.244;2023-05-15T06:30:09;14.60;94.80
48998;DHT22;34807;51.456;7.244;2023-05-15T06:32:35;14.60;94.80
48998;DHT22;34807;51.456;7.244;2023-05-15T06:35:01;14.70;94.80
48998;DHT22;34807;51.456;7.244;2023-05-15T06:37:26;14.70;94.80
48998;DHT22;34807;51.456;7.244;2023-05-15T06:39:53;14.70;94.60
48998;DHT22;34807;51.456;7.244;2023-05-15T06:42:18;14.70;94.70
48998;DHT22;34807;51.456;7.244;2023-05-15T06:44:44;14.70;94.60
48998;DHT22;34807;51.456;7.244;2023-05-15T06:47:11;14.80;94.50
48998;DHT22;34807;51.456;7.244;2023-05-15T06:49:37;14.80;94.60
48998;DHT22;34807;51.456;7.244;2023-05-15T06:52:02;14.80;94.60
48998;DHT22;34807;51.456;7.244;2023-05-15T06:54:28;14.90;94.50
48998;DHT22;34807;51.456;7.244;2023-05-15T06:56:53;14.90;94.30
48998;DHT22;34807;51.456;7.244;2023-05-15T06:59:19;14.90;94.50
48998;DHT22;34807;51.456;7.244;2023-05-15T07:01:44;15.00;94.50
48998;DHT22;34807;51.456;7.244;2023-05-15T07:04:10;15.00;94.40
48998;DHT22;34807;51.456;7.244;2023-05-15T07:06:36;15.00;94.40
48998;DHT22;34807;51.456;7.244;2023-05-15T07:09:02;15.10;94.30
48998;DHT22;34807;51.456;7.244;2023-05-15T07:11:27;15.10;94.20
48998;DHT22;34807;51.456;7.244;2023-05-15T07:13:53;15.10;94.20
48998;DHT22;34807;51.456;7.244;2023-05-15T07:16:19;15.10;94.30
48998;DHT22;34807;51.456;7.244;2023-05-15T07:18:44;15.10;94.30
48998;DHT22;34807;51.456;7.244;2023-05-15T07:21:10;15.10;94.20
48998;DHT22;34807;51.456;7.244;2023-05-15T07:23:36;15.10;94.30
48998;DHT22;34807;51.456;7.244;2023-05-15T07:26:01;15.10;94.30
48998;DHT22;34807;51.456;7.244;2023-05-15T07:28:27;15.10;94.40
48998;DHT22;34807;51.456;7.244;2023-05-15T07:30:52;15.10;94.40
48998;DHT22;34807;51.456;7.244;2023-05-15T07:33:18;15.10;94.40
48998;DHT22;34807;51.456;7.244;2023-05-15T07:35:43;15.10;94.40
48998;DHT22;34807;51.456;7.244;2023-05-15T07:38:09;15.10;94.40
48998;DHT22;34807;51.456;7.244;2023-05-15T07:40:35;15.10;94.40
48998;DHT22;34807;51.456;7.244;2023-05-15T07:43:00;15.10;94.40
48998;DHT22;34807;51.456;7.244;2023-05-15T07:45:25;15.20;94.40
48998;DHT22;34807;51.456;7.244;2023-05-15T07:47:51;15.20;94.30
48998;DHT22;34807;51.456;7.244;2023-05-15T07:50:17;15.30;94.30
48998;DHT22;34807;51.456;7.244;2023-05-15T07:52:42;15.30;94.30
48998;DHT22;34807;51.456;7.244;2023-05-15T07:55:08;15.30;94.20
48998;DHT22;34807;51.456;7.244;2023-05-15T07:57:34;15.40;94.10
48998;DHT22;34807;51.456;7.244;2023-05-15T07:59:59;15.40;94.10
48998;DHT22;34807;51.456;7.244;2023-05-15T08:02:30;15.40;94.00
48998;DHT22;34807;51.456;7.244;2023-05-15T08:04:56;15.40;94.00
48998;DHT22;34807;51.456;7.244;2023-05-15T08:07:21;15.50;94.00
48998;DHT22;34807;51.456;7.244;2023-05-15T08:09:47;15.40;93.90
48998;DHT22;34807;51.456;7.244;2023-05-15T08:12:17;15.50;93.90
48998;DHT22;34807;51.456;7.244;2023-05-15T08:14:54;15.50;93.90
48998;DHT22;34807;51.456;7.244;2023-05-15T08:17:20;15.50;93.90
48998;DHT22;34807;51.456;7.244;2023-05-15T08:19:46;15.50;93.90
48998;DHT22;34807;51.456;7.244;2023-05-15T08:22:12;15.60;93.80
48998;DHT22;34807;51.456;7.244;2023-05-15T08:24:38;15.50;93.80
48998;DHT22;34807;51.456;7.244;2023-05-15T08:27:04;15.60;93.70
48998;DHT22;34807;51.456;7.244;2023-05-15T08:29:30;15.60;93.70
48998;DHT22;34807;51.456;7.244;2023-05-15T08:31:56;15.60;93.70
48998;DHT22;34807;51.456;7.244;2023-05-15T08:34:22;15.70;93.60
48998;DHT22;34807;51.456;7.244;2023-05-15T08:36:48;15.70;93.70
48998;DHT22;34807;51.456;7.244;2023-05-15T08:39:13;15.70;93.60
48998;DHT22;34807;51.456;7.244;2023-05-15T08:44:24;15.80;93.50
48998;DHT22;34807;51.456;7.244;2023-05-15T08:46:51;15.80;93.50
48998;DHT22;34807;51.456;7.244;2023-05-15T08:49:31;15.80;93.50
48998;DHT22;34807;51.456;7.244;2023-05-15T08:51:57;15.80;93.30
48998;DHT22;34807;51.456;7.244;2023-05-15T08:54:23;15.90;93.40
48998;DHT22;34807;51.456;7.244;2023-05-15T08:56:49;15.90;93.30
48998;DHT22;34807;51.456;7.244;2023-05-15T08:59:15;15.90;93.30
48998;DHT22;34807;51.456;7.244;2023-05-15T09:01:40;15.90;93.20
48998;DHT22;34807;51.456;7.244;2023-05-15T09:04:06;15.90;93.20
48998;DHT22;34807;51.456;7.244;2023-05-15T09:06:32;15.90;93.10
48998;DHT22;34807;51.456;7.244;2023-05-15T09:08:58;15.90;93.10
48998;DHT22;34807;51.456;7.244;2023-05-15T09:11:25;16.00;93.10
48998;DHT22;34807;51.456;7.244;2023-05-15T09:13:51;16.00;93.20
48998;DHT22;34807;51.456;7.244;2023-05-15T09:16:19;16.00;93.00
48998;DHT22;34807;51.456;7.244;2023-05-15T09:18:45;16.10;93.00
48998;DHT22;34807;51.456;7.244;2023-05-15T09:23:47;16.20;92.80
48998;DHT22;34807;51.456;7.244;2023-05-15T09:26:13;16.20;92.70
48998;DHT22;34807;51.456;7.244;2023-05-15T09:28:39;16.30;92.60
48998;DHT22;34807;51.456;7.244;2023-05-15T09:31:05;16.30;92.60
48998;DHT22;34807;51.456;7.244;2023-05-15T09:33:34;16.40;92.60
48998;DHT22;34807;51.456;7.244;2023-05-15T09:36:00;16.40;92.60
48998;DHT22;34807;51.456;7.244;2023-05-15T09:38:26;16.50;92.60
48998;DHT22;34807;51.456;7.244;2023-05-15T09:40:59;16.50;92.50
48998;DHT22;34807;51.456;7.244;2023-05-15T09:43:26;16.60;92.40
48998;DHT22;34807;51.456;7.244;2023-05-15T09:45:52;16.60;92.20
48998;DHT22;34807;51.456;7.244;2023-05-15T09:48:17;16.70;92.30
48998;DHT22;34807;51.456;7.244;2023-05-15T09:50:43;16.70;92.20
48998;DHT22;34807;51.456;7.244;2023-05-15T09:53:10;16.80;92.20
48998;DHT22;34807;51.456;7.244;2023-05-15T09:55:36;16.80;92.10
48998;DHT22;34807;51.456;7.244;2023-05-15T09:58:08;16.80;92.20
48998;DHT22;34807;51.456;7.244;2023-05-15T10:00:35;16.90;92.00
48998;DHT22;34807;51.456;7.244;2023-05-15T10:03:01;16.90;92.00
48998;DHT22;34807;51.456;7.244;2023-05-15T10:05:28;16.90;91.70
48998;DHT22;34807;51.456;7.244;2023-05-15T10:07:54;17.00;92.00
48998;DHT22;34807;51.456;7.244;2023-05-15T10:10:20;17.00;91.90
48998;DHT22;34807;51.456;7.244;2023-05-15T10:12:46;17.10;91.90
48998;DHT22;34807;51.456;7.244;2023-05-15T10:15:11;17.10;91.90
48998;DHT22;34807;51.456;7.244;2023-05-15T10:17:37;17.20;91.80
48998;DHT22;34807;51.456;7.244;2023-05-15T10:20:04;17.20;91.80
48998;DHT22;34807;51.456;7.244;2023-05-15T10:22:31;17.30;91.70
48998;DHT22;34807;51.456;7.244;2023-05-15T10:25:22;17.30;91.70
48998;DHT22;34807;51.456;7.244;2023-05-15T10:27:47;17.40;91.80
48998;DHT22;34807;51.456;7.244;2023-05-15T10:30:14;17.40;91.50
48998;DHT22;34807;51.456;7.244;2023-05-15T10:32:42;17.30;91.80
48998;DHT22;34807;51.456;7.244;2023-05-15T10:35:10;17.40;91.90
48998;DHT22;34807;51.456;7.244;2023-05-15T10:37:39;17.50;91.80
48998;DHT22;34807;51.456;7.244;2023-05-15T10:40:05;17.50;91.70
48998;DHT22;34807;51.456;7.244;2023-05-15T10:42:31;17.60;91.80
48998;DHT22;34807;51.456;7.244;2023-05-15T10:44:57;17.60;91.70
48998;DHT22;34807;51.456;7.244;2023-05-15T10:47:25;17.70;91.70
48998;DHT22;34807;51.456;7.244;2023-05-15T10:49:51;17.80;91.10
48998;DHT22;34807;51.456;7.244;2023-05-15T10:52:16;17.80;91.00
48998;DHT22;34807;51.456;7.244;2023-05-15T10:54:42;18.00;91.60
48998;DHT22;34807;51.456;7.244;2023-05-15T10:57:07;18.00;91.70
48998;DHT22;34807;51.456;7.244;2023-05-15T10:59:33;18.10;91.60
48998;DHT22;34807;51.456;7.244;2023-05-15T11:02:17;18.20;91.40
48998;DHT22;34807;51.456;7.244;2023-05-15T11:04:43;18.30;91.70
48998;DHT22;34807;51.456;7.244;2023-05-15T11:07:12;18.30;91.00
48998;DHT22;34807;51.456;7.244;2023-05-15T11:09:38;18.40;91.50
48998;DHT22;34807;51.456;7.244;2023-05-15T11:12:05;18.50;91.60
48998;DHT22;34807;51.456;7.244;2023-05-15T11:14:32;18.60;91.50
48998;DHT22;34807;51.456;7.244;2023-05-15T11:16:58;18.60;91.40
48998;DHT22;34807;51.456;7.244;2023-05-15T11:21:56;18.80;90.90
48998;DHT22;34807;51.456;7.244;2023-05-15T11:24:32;18.80;91.40
48998;DHT22;34807;51.456;7.244;2023-05-15T11:27:01;18.90;90.90
48998;DHT22;34807;51.456;7.244;2023-05-15T11:29:27;18.90;91.00
48998;DHT22;34807;51.456;7.244;2023-05-15T11:31:52;19.00;91.30
48998;DHT22;34807;51.456;7.244;2023-05-15T11:37:16;19.10;91.00
48998;DHT22;34807;51.456;7.244;2023-05-15T11:39:42;19.20;91.10
48998;DHT22;34807;51.456;7.244;2023-05-15T11:42:11;19.20;91.20
48998;DHT22;34807;51.456;7.244;2023-05-15T11:44:37;19.20;91.30
48998;DHT22;34807;51.456;7.244;2023-05-15T11:47:03;19.30;91.20
48998;DHT22;34807;51.456;7.244;2023-05-15T11:49:31;19.40;91.10
48998;DHT22;34807;51.456;7.244;2023-05-15T11:51:57;19.50;91.00
48998;DHT22;34807;51.456;7.244;2023-05-15T11:54:23;19.50;90.90
48998;DHT22;34807;51.456;7.244;2023-05-15T11:56:49;19.60;90.50
48998;DHT22;34807;51.456;7.244;2023-05-15T11:59:15;19.70;90.70
48998;DHT22;34807;51.456;7.244;2023-05-15T12:01:40;19.80;90.70
48998;DHT22;34807;51.456;7.244;2023-05-15T12:04:13;19.80;90.50
48998;DHT22;34807;51.456;7.244;2023-05-15T12:06:39;19.90;90.40
48998;DHT22;34807;51.456;7.244;2023-05-15T12:09:05;19.90;90.40
48998;DHT22;34807;51.456;7.244;2023-05-15T12:11:30;19.90;90.20
48998;DHT22;34807;51.456;7.244;2023-05-15T12:13:56;20.00;90.10
48998;DHT22;34807;51.456;7.244;2023-05-15T12:16:25;20.10;90.10
48998;DHT22;34807;51.456;7.244;2023-05-15T12:18:51;20.10;90.20
48998;DHT22;34807;51.456;7.244;2023-05-15T12:21:16;20.20;90.30
48998;DHT22;34807;51.456;7.244;2023-05-15T12:23:48;20.10;87.30
48998;DHT22;34807;51.456;7.244;2023-05-15T12:26:14;20.00;88.80
48998;DHT22;34807;51.456;7.244;2023-05-15T12:28:39;20.00;89.00
48998;DHT22;34807;51.456;7.244;2023-05-15T12:31:08;20.10;90.00
48998;DHT22;34807;51.456;7.244;2023-05-15T12:33:34;20.10;90.60
48998;DHT22;34807;51.456;7.244;2023-05-15T12:36:00;20.10;90.60
48998;DHT22;34807;51.456;7.244;2023-05-15T12:38:25;20.30;90.10
48998;DHT22;34807;51.456;7.244;2023-05-15T12:40:51;20.30;90.20
48998;DHT22;34807;51.456;7.244;2023-05-15T12:43:24;20.40;90.00
48998;DHT22;34807;51.456;7.244;2023-05-15T12:45:56;20.40;89.80
48998;DHT22;34807;51.456;7.244;2023-05-15T12:48:22;20.50;89.20
48998;DHT22;34807;51.456;7.244;2023-05-15T12:50:48;20.50;88.50
48998;DHT22;34807;51.456;7.244;2023-05-15T12:53:14;20.60;88.40
48998;DHT22;34807;51.456;7.244;2023-05-15T12:55:40;20.70;89.50
48998;DHT22;34807;51.456;7.244;2023-05-15T12:58:08;20.80;88.70
48998;DHT22;34807;51.456;7.244;2023-05-15T13:00:35;20.80;88.50
48998;DHT22;34807;51.456;7.244;2023-05-15T13:03:00;20.90;88.20
48998;DHT22;34807;51.456;7.244;2023-05-15T13:05:26;21.00;87.50
48998;DHT22;34807;51.456;7.244;2023-05-15T13:07:52;21.00;87.70
48998;DHT22;34807;51.456;7.244;2023-05-15T13:10:21;21.00;88.00
48998;DHT22;34807;51.456;7.244;2023-05-15T13:12:47;21.10;86.70
48998;DHT22;34807;51.456;7.244;2023-05-15T13:17:50;21.30;86.60
48998;DHT22;34807;51.456;7.244;2023-05-15T13:20:16;21.30;84.10
48998;DHT22;34807;51.456;7.244;2023-05-15T13:22:41;21.40;85.20
48998;DHT22;34807;51.456;7.244;2023-05-15T13:25:07;21.50;82.70
48998;DHT22;34807;51.456;7.244;2023-05-15T13:27:33;21.60;82.10
48998;DHT22;34807;51.456;7.244;2023-05-15T13:29:58;21.60;83.50
48998;DHT22;34807;51.456;7.244;2023-05-15T13:32:24;21.70;83.20
48998;DHT22;34807;51.456;7.244;2023-05-15T13:34:49;21.80;82.40
48998;DHT22;34807;51.456;7.244;2023-05-15T13:37:18;21.80;82.60
48998;DHT22;34807;51.456;7.244;2023-05-15T13:39:44;21.90;82.90
48998;DHT22;34807;51.456;7.244;2023-05-15T13:42:10;21.90;82.20
48998;DHT22;34807;51.456;7.244;2023-05-15T13:44:35;22.00;83.30
48998;DHT22;34807;51.456;7.244;2023-05-15T13:47:01;22.10;83.00
48998;DHT22;34807;51.456;7.244;2023-05-15T13:49:28;22.10;83.00
48998;DHT22;34807;51.456;7.244;2023-05-15T13:51:54;22.30;81.90
48998;DHT22;34807;51.456;7.244;2023-05-15T13:54:19;22.20;81.80
48998;DHT22;34807;51.456;7.244;2023-05-15T13:56:45;22.20;81.60
48998;DHT22;34807;51.456;7.244;2023-05-15T13:59:10;22.20;82.20
48998;DHT22;34807;51.456;7.244;2023-05-15T14:01:36;22.30;82.10
48998;DHT22;34807;51.456;7.244;2023-05-15T14:04:02;22.20;83.40
48998;DHT22;34807;51.456;7.244;2023-05-15T14:06:29;22.20;82.60
48998;DHT22;34807;51.456;7.244;2023-05-15T14:08:55;22.30;82.00
48998;DHT22;34807;51.456;7.244;2023-05-15T14:11:20;22.30;81.90
48998;DHT22;34807;51.456;7.244;2023-05-15T14:13:47;22.40;82.80
48998;DHT22;34807;51.456;7.244;2023-05-15T14:16:12;22.30;81.90
48998;DHT22;34807;51.456;7.244;2023-05-15T14:18:38;22.30;81.60
48998;DHT22;34807;51.456;7.244;2023-05-15T14:21:03;22.20;80.00
48998;DHT22;34807;51.456;7.244;2023-05-15T14:23:29;22.10;80.50
48998;DHT22;34807;51.456;7.244;2023-05-15T14:25:54;22.10;81.20
48998;DHT22;34807;51.456;7.244;2023-05-15T14:28:20;22.10;81.80
48998;DHT22;34807;51.456;7.244;2023-05-15T14:30:45;22.00;81.00
48998;DHT22;34807;51.456;7.244;2023-05-15T14:33:11;22.10;81.50
48998;DHT22;34807;51.456;7.244;2023-05-15T14:35:36;22.10;77.80
48998;DHT22;34807;51.456;7.244;2023-05-15T14:38:02;22.00;78.00
48998;DHT22;34807;51.456;7.244;2023-05-15T14:40:28;22.10;76.80
48998;DHT22;34807;51.456;7.244;2023-05-15T14:42:54;22.20;77.90
48998;DHT22;34807;51.456;7.244;2023-05-15T14:45:19;22.30;77.50
48998;DHT22;34807;51.456;7.244;2023-05-15T14:47:45;22.40;76.90
48998;DHT22;34807;51.456;7.244;2023-05-15T14:50:10;22.20;76.70
48998;DHT22;34807;51.456;7.244;2023-05-15T14:52:36;22.10;78.00
48998;DHT22;34807;51.456;7.244;2023-05-15T14:55:01;22.00;76.70
48998;DHT22;34807;51.456;7.244;2023-05-15T14:57:27;21.90;77.20
48998;DHT22;34807;51.456;7.244;2023-05-15T14:59:53;21.80;77.90
48998;DHT22;34807;51.456;7.244;2023-05-15T15:02:18;21.90;76.90
48998;DHT22;34807;51.456;7.244;2023-05-15T15:04:44;21.90;77.10
48998;DHT22;34807;51.456;7.244;2023-05-15T15:07:09;22.10;76.40
48998;DHT22;34807;51.456;7.244;2023-05-15T15:09:35;22.30;75.60
48998;DHT22;34807;51.456;7.244;2023-05-15T15:12:01;22.40;75.70
48998;DHT22;34807;51.456;7.244;2023-05-15T15:14:26;22.60;75.60
48998;DHT22;34807;51.456;7.244;2023-05-15T15:16:52;23.00;74.80
48998;DHT22;34807;51.456;7.244;2023-05-15T15:19:17;23.40;73.90
48998;DHT22;34807;51.456;7.244;2023-05-15T15:21:43;23.80;73.20
48998;DHT22;34807;51.456;7.244;2023-05-15T15:24:09;23.80;72.80
48998;DHT22;34807;51.456;7.244;2023-05-15T15:26:34;23.80;73.10
48998;DHT22;34807;51.456;7.244;2023-05-15T15:29:00;23.70;71.70
48998;DHT22;34807;51.456;7.244;2023-05-15T15:31:26;23.60;73.60
48998;DHT22;34807;51.456;7.244;2023-05-15T15:33:52;23.40;74.40
48998;DHT22;34807;51.456;7.244;2023-05-15T15:36:17;23.20;74.60
48998;DHT22;34807;51.456;7.244;2023-05-15T15:38:43;23.00;74.60
48998;DHT22;34807;51.456;7.244;2023-05-15T15:41:08;22.90;74.10
48998;DHT22;34807;51.456;7.244;2023-05-15T15:43:34;22.80;75.80
48998;DHT22;34807;51.456;7.244;2023-05-15T15:45:59;22.70;75.60